sensor_id;sensor_type;location;lat;lon;timestamp;pressure;altitude;pressure_sealevel;temperature;humidity
83894;BME280;73920;51.902;6.374;2024-02-26T06:13:12;100099.59;;;4.05;87.52
83894;BME280;73920;51.902;6.374;2024-02-26T06:15:38;100099.97;;;4.16;89.02
83894;BME280;73920;51.902;6.374;2024-02-26T06:20:33;100104.50;;;4.56;90.89
83894;BME280;73920;51.902;6.374;2024-02-26T06:22:59;100109.88;;;4.75;90.62
83894;BME280;73920;51.902;6.374;2024-02-26T06:30:38;100121.78;;;5.25;89.11
83894;BME280;73920;51.902;6.374;2024-02-26T06:33:05;100121.47;;;5.33;88.25
83894;BME280;73920;51.902;6.374;2024-02-26T06:35:31;100131.78;;;5.39;87.28
83894;BME280;73920;51.902;6.374;2024-02-26T06:37:57;100122.84;;;5.41;86.66
83894;BME280;73920;51.902;6.374;2024-02-26T06:40:24;100127.34;;;5.39;85.92
83894;BME280;73920;51.902;6.374;2024-02-26T06:42:50;100132.88;;;5.35;85.28
83894;BME280;73920;51.902;6.374;2024-02-26T06:45:16;100127.69;;;5.32;85.28
83894;BME280;73920;51.902;6.374;2024-02-26T06:47:43;100132.06;;;5.33;85.51
83894;BME280;73920;51.902;6.374;2024-02-26T06:50:11;100133.94;;;5.31;84.89
83894;BME280;73920;51.902;6.374;2024-02-26T06:52:38;100138.38;;;5.30;84.91
83894;BME280;73920;51.902;6.374;2024-02-26T06:55:05;100098.75;;;5.07;84.91
83894;BME280;73920;51.902;6.374;2024-02-26T06:57:31;100137.56;;;5.28;84.76
83894;BME280;73920;51.902;6.374;2024-02-26T06:59:57;100141.22;;;5.26;84.72
83894;BME280;73920;51.902;6.374;2024-02-26T07:02:23;100135.91;;;5.26;85.07
83894;BME280;73920;51.902;6.374;2024-02-26T07:04:50;100136.78;;;5.26;84.93
83894;BME280;73920;51.902;6.374;2024-02-26T07:07:16;100129.69;;;5.27;84.78
83894;BME280;73920;51.902;6.374;2024-02-26T07:09:42;100137.56;;;5.28;85.02
83894;BME280;73920;51.902;6.374;2024-02-26T07:12:09;100138.41;;;5.29;84.94
83894;BME280;73920;51.902;6.374;2024-02-26T07:14:35;100147.19;;;5.31;85.26
83894;BME280;73920;51.902;6.374;2024-02-26T07:17:01;100147.19;;;5.31;84.68
83894;BME280;73920;51.902;6.374;2024-02-26T07:19:27;100155.06;;;5.32;84.52
83894;BME280;73920;51.902;6.374;2024-02-26T07:21:54;100157.66;;;5.34;84.69
83894;BME280;73920;51.902;6.374;2024-02-26T07:24:20;100159.25;;;5.38;84.60
83894;BME280;73920;51.902;6.374;2024-02-26T07:26:46;100163.66;;;5.37;84.72
83894;BME280;73920;51.902;6.374;2024-02-26T07:29:12;100167.09;;;5.39;84.58
83894;BME280;73920;51.902;6.374;2024-02-26T07:31:39;100163.53;;;5.40;84.35
83894;BME280;73920;51.902;6.374;2024-02-26T07:34:05;100175.78;;;5.43;84.31
83894;BME280;73920;51.902;6.374;2024-02-26T07:36:31;100174.00;;;5.43;84.17
83894;BME280;73920;51.902;6.374;2024-02-26T07:38:57;100177.47;;;5.45;83.81
83894;BME280;73920;51.902;6.374;2024-02-26T07:41:23;100181.81;;;5.46;83.70
83894;BME280;73920;51.902;6.374;2024-02-26T07:43:50;100178.09;;;5.51;83.72
83894;BME280;73920;51.902;6.374;2024-02-26T07:46:16;100177.19;;;5.52;83.59
83894;BME280;73920;51.902;6.374;2024-02-26T07:48:44;100179.78;;;5.53;83.27
83894;BME280;73920;51.902;6.374;2024-02-26T07:51:13;100177.19;;;5.52;83.43
83894;BME280;73920;51.902;6.374;2024-02-26T07:53:39;100181.62;;;5.51;83.31
83894;BME280;73920;51.902;6.374;2024-02-26T07:56:06;100188.66;;;5.52;83.51
83894;BME280;73920;51.902;6.374;2024-02-26T07:58:33;100181.56;;;5.53;83.16
83894;BME280;73920;51.902;6.374;2024-02-26T08:00:59;100187.62;;;5.55;83.43
83894;BME280;73920;51.902;6.374;2024-02-26T08:03:25;100187.62;;;5.55;83.44
83894;BME280;73920;51.902;6.374;2024-02-26T08:05:51;100191.22;;;5.54;83.36
83894;BME280;73920;51.902;6.374;2024-02-26T08:08:18;100196.50;;;5.54;83.36
83894;BME280;73920;51.902;6.374;2024-02-26T08:10:44;100201.72;;;5.57;83.80
83894;BME280;73920;51.902;6.374;2024-02-26T08:13:10;100198.09;;;5.58;83.52
83894;BME280;73920;51.902;6.374;2024-02-26T08:15:37;100196.25;;;5.60;84.03
83894;BME280;73920;51.902;6.374;2024-02-26T08:18:04;100197.91;;;5.62;83.68
83894;BME280;73920;51.902;6.374;2024-02-26T08:20:31;100204.84;;;5.65;83.64
83894;BME280;73920;51.902;6.374;2024-02-26T08:22:57;100211.75;;;5.69;83.47
83894;BME280;73920;51.902;6.374;2024-02-26T08:25:24;100211.69;;;5.70;83.40
83894;BME280;73920;51.902;6.374;2024-02-26T08:27:51;100223.09;;;5.72;83.38
83894;BME280;73920;51.902;6.374;2024-02-26T08:30:17;100216.00;;;5.73;83.08
83894;BME280;73920;51.902;6.374;2024-02-26T08:32:45;100215.94;;;5.74;83.26
83894;BME280;73920;51.902;6.374;2024-02-26T08:35:11;100223.81;;;5.76;83.35
83894;BME280;73920;51.902;6.374;2024-02-26T08:37:37;100228.97;;;5.79;83.59
83894;BME280;73920;51.902;6.374;2024-02-26T08:40:05;100229.91;;;5.78;83.37
83894;BME280;73920;51.902;6.374;2024-02-26T08:42:31;100242.22;;;5.79;83.34
83894;BME280;73920;51.902;6.374;2024-02-26T08:44:58;100236.00;;;5.80;83.60
83894;BME280;73920;51.902;6.374;2024-02-26T08:47:24;100245.56;;;5.84;83.40
83894;BME280;73920;51.902;6.374;2024-02-26T08:49:50;100239.31;;;5.85;83.32
83894;BME280;73920;51.902;6.374;2024-02-26T08:52:16;100244.53;;;5.88;83.51
83894;BME280;73920;51.902;6.374;2024-02-26T08:54:42;100257.72;;;5.89;83.45
83894;BME280;73920;51.902;6.374;2024-02-26T08:57:09;100260.38;;;5.89;83.34
83894;BME280;73920;51.902;6.374;2024-02-26T08:59:35;100270.91;;;5.91;83.62
83894;BME280;73920;51.902;6.374;2024-02-26T09:02:01;100265.47;;;5.94;83.49
83894;BME280;73920;51.902;6.374;2024-02-26T09:04:27;100263.47;;;5.99;83.41
83894;BME280;73920;51.902;6.374;2024-02-26T09:06:54;100269.41;;;6.04;83.34
83894;BME280;73920;51.902;6.374;2024-02-26T09:09:20;100275.47;;;6.08;83.18
83894;BME280;73920;51.902;6.374;2024-02-26T09:11:46;100275.38;;;6.09;82.99
83894;BME280;73920;51.902;6.374;2024-02-26T09:14:13;100272.69;;;6.11;83.05
83894;BME280;73920;51.902;6.374;2024-02-26T09:16:39;100270.09;;;6.09;83.13
83894;BME280;73920;51.902;6.374;2024-02-26T09:19:05;100275.09;;;6.15;83.29
83894;BME280;73920;51.902;6.374;2024-02-26T09:21:31;100274.84;;;6.21;82.97
83894;BME280;73920;51.902;6.374;2024-02-26T09:23:57;100277.22;;;6.27;83.01
83894;BME280;73920;51.902;6.374;2024-02-26T09:26:24;100280.63;;;6.29;83.09
83894;BME280;73920;51.902;6.374;2024-02-26T09:28:50;100283.19;;;6.32;83.04
83894;BME280;73920;51.902;6.374;2024-02-26T09:31:18;100288.50;;;6.32;82.75
83894;BME280;73920;51.902;6.374;2024-02-26T09:33:44;100297.44;;;6.30;82.52
83894;BME280;73920;51.902;6.374;2024-02-26T09:36:10;100288.59;;;6.29;82.85
83894;BME280;73920;51.902;6.374;2024-02-26T09:38:37;100305.19;;;6.34;82.66
83894;BME280;73920;51.902;6.374;2024-02-26T09:41:04;100302.41;;;6.37;82.19
83894;BME280;73920;51.902;6.374;2024-02-26T09:43:35;100301.41;;;6.40;82.33
83894;BME280;73920;51.902;6.374;2024-02-26T09:46:02;100302.03;;;6.45;82.43
83894;BME280;73920;51.902;6.374;2024-02-26T09:48:29;100307.94;;;6.52;82.34
83894;BME280;73920;51.902;6.374;2024-02-26T09:50:56;100305.16;;;6.55;81.99
83894;BME280;73920;51.902;6.374;2024-02-26T09:53:23;100313.75;;;6.60;82.23
83894;BME280;73920;51.902;6.374;2024-02-26T09:55:49;100331.41;;;6.61;82.08
83894;BME280;73920;51.902;6.374;2024-02-26T09:58:16;100332.34;;;6.60;81.99
83894;BME280;73920;51.902;6.374;2024-02-26T10:00:43;100339.38;;;6.61;82.08
83894;BME280;73920;51.902;6.374;2024-02-26T10:03:14;100346.34;;;6.63;81.82
83894;BME280;73920;51.902;6.374;2024-02-26T10:05:41;100343.78;;;6.62;82.02
83894;BME280;73920;51.902;6.374;2024-02-26T10:08:09;100342.81;;;6.63;82.07
83894;BME280;73920;51.902;6.374;2024-02-26T10:10:37;100350.78;;;6.63;82.13
83894;BME280;73920;51.902;6.374;2024-02-26T10:13:04;100345.41;;;6.64;82.25
83894;BME280;73920;51.902;6.374;2024-02-26T10:15:31;100347.22;;;6.64;82.27
83894;BME280;73920;51.902;6.374;2024-02-26T10:17:57;100349.88;;;6.64;82.12
83894;BME280;73920;51.902;6.374;2024-02-26T10:20:24;100358.13;;;6.58;82.24
83894;BME280;73920;51.902;6.374;2024-02-26T10:22:50;100358.28;;;6.55;82.35
83894;BME280;73920;51.902;6.374;2024-02-26T10:25:17;100365.44;;;6.53;82.47
83894;BME280;73920;51.902;6.374;2024-02-26T10:27:43;100364.84;;;6.46;82.30
83894;BME280;73920;51.902;6.374;2024-02-26T10:30:19;100368.38;;;6.47;82.56
83894;BME280;73920;51.902;6.374;2024-02-26T10:32:47;100375.34;;;6.49;82.46
83894;BME280;73920;51.902;6.374;2024-02-26T10:35:16;100366.34;;;6.52;82.53
83894;BME280;73920;51.902;6.374;2024-02-26T10:37:44;100383.09;;;6.54;82.33
83894;BME280;73920;51.902;6.374;2024-02-26T10:40:11;100385.75;;;6.54;82.25
83894;BME280;73920;51.902;6.374;2024-02-26T10:42:38;100383.09;;;6.54;82.34
83894;BME280;73920;51.902;6.374;2024-02-26T10:45:06;100392.84;;;6.53;82.35
83894;BME280;73920;51.902;6.374;2024-02-26T10:47:33;100394.59;;;6.54;82.48
83894;BME280;73920;51.902;6.374;2024-02-26T10:50:01;100403.44;;;6.55;82.07
83894;BME280;73920;51.902;6.374;2024-02-26T10:52:28;100406.91;;;6.55;82.23
83894;BME280;73920;51.902;6.374;2024-02-26T10:54:57;100411.25;;;6.58;82.25
83894;BME280;73920;51.902;6.374;2024-02-26T10:57:27;100411.41;;;6.55;81.92
83894;BME280;73920;51.902;6.374;2024-02-26T10:59:55;100421.25;;;6.51;82.15
83894;BME280;73920;51.902;6.374;2024-02-26T11:02:22;100424.72;;;6.53;82.25
83894;BME280;73920;51.902;6.374;2024-02-26T11:04:48;100419.41;;;6.53;82.23
83894;BME280;73920;51.902;6.374;2024-02-26T11:07:15;100422.06;;;6.53;82.47
83894;BME280;73920;51.902;6.374;2024-02-26T11:09:43;100420.28;;;6.54;82.31
83894;BME280;73920;51.902;6.374;2024-02-26T11:12:14;100438.88;;;6.54;82.39
83894;BME280;73920;51.902;6.374;2024-02-26T11:14:40;100431.78;;;6.54;82.24
83894;BME280;73920;51.902;6.374;2024-02-26T11:17:10;100443.19;;;6.56;82.44
83894;BME280;73920;51.902;6.374;2024-02-26T11:19:38;100444.00;;;6.58;82.04
83894;BME280;73920;51.902;6.374;2024-02-26T11:22:07;100437.94;;;6.55;82.33
83894;BME280;73920;51.902;6.374;2024-02-26T11:24:33;100436.06;;;6.57;82.46
83894;BME280;73920;51.902;6.374;2024-02-26T11:27:02;100442.31;;;6.56;82.67
83894;BME280;73920;51.902;6.374;2024-02-26T11:29:39;100436.13;;;6.55;82.71
83894;BME280;73920;51.902;6.374;2024-02-26T11:32:07;100447.63;;;6.56;82.73
83894;BME280;73920;51.902;6.374;2024-02-26T11:34:34;100453.87;;;6.55;82.88
83894;BME280;73920;51.902;6.374;2024-02-26T11:37:12;100449.41;;;6.55;82.85
83894;BME280;73920;51.902;6.374;2024-02-26T11:39:40;100450.47;;;6.51;82.88
83894;BME280;73920;51.902;6.374;2024-02-26T11:42:08;100458.53;;;6.50;83.13
83894;BME280;73920;51.902;6.374;2024-02-26T11:44:35;100464.50;;;6.55;83.03
83894;BME280;73920;51.902;6.374;2024-02-26T11:47:13;100460.91;;;6.56;83.02
83894;BME280;73920;51.902;6.374;2024-02-26T11:49:40;100457.31;;;6.57;82.99
83894;BME280;73920;51.902;6.374;2024-02-26T11:52:10;100454.72;;;6.55;83.09
83894;BME280;73920;51.902;6.374;2024-02-26T11:59:48;100473.25;;;6.57;83.30
83894;BME280;73920;51.902;6.374;2024-02-26T12:04:51;100474.03;;;6.59;83.27
83894;BME280;73920;51.902;6.374;2024-02-26T12:07:17;100468.81;;;6.57;83.19
83894;BME280;73920;51.902;6.374;2024-02-26T12:09:44;100477.72;;;6.56;83.10
83894;BME280;73920;51.902;6.374;2024-02-26T12:12:17;100476.06;;;6.54;83.38
83894;BME280;73920;51.902;6.374;2024-02-26T12:14:52;100484.94;;;6.53;83.44
83894;BME280;73920;51.902;6.374;2024-02-26T12:17:24;100482.44;;;6.50;83.26
83894;BME280;73920;51.902;6.374;2024-02-26T12:19:50;100486.00;;;6.49;83.52
83894;BME280;73920;51.902;6.374;2024-02-26T12:22:17;100481.56;;;6.49;83.71
83894;BME280;73920;51.902;6.374;2024-02-26T12:24:44;100490.41;;;6.50;83.65
83894;BME280;73920;51.902;6.374;2024-02-26T12:27:10;100488.66;;;6.49;83.77
83894;BME280;73920;51.902;6.374;2024-02-26T12:29:36;100494.78;;;6.51;83.58
83894;BME280;73920;51.902;6.374;2024-02-26T12:32:06;100502.75;;;6.51;83.55
83894;BME280;73920;51.902;6.374;2024-02-26T12:34:32;100499.09;;;6.53;83.51
83894;BME280;73920;51.902;6.374;2024-02-26T12:36:59;100493.94;;;6.50;83.40
83894;BME280;73920;51.902;6.374;2024-02-26T12:39:25;100499.97;;;6.54;83.47
83894;BME280;73920;51.902;6.374;2024-02-26T12:41:52;100500.88;;;6.53;83.34
83894;BME280;73920;51.902;6.374;2024-02-26T12:44:28;100508.72;;;6.56;83.45
83894;BME280;73920;51.902;6.374;2024-02-26T12:46:59;100519.19;;;6.59;83.43
83894;BME280;73920;51.902;6.374;2024-02-26T12:49:26;100534.16;;;6.61;83.38
83894;BME280;73920;51.902;6.374;2024-02-26T12:51:52;100526.19;;;6.61;83.51
83894;BME280;73920;51.902;6.374;2024-02-26T12:54:19;100533.03;;;6.67;83.58
83894;BME280;73920;51.902;6.374;2024-02-26T12:56:45;100528.56;;;6.67;83.29
83894;BME280;73920;51.902;6.374;2024-02-26T12:59:12;100538.16;;;6.71;83.17
83894;BME280;73920;51.902;6.374;2024-02-26T13:01:39;100539.94;;;6.71;83.31
83894;BME280;73920;51.902;6.374;2024-02-26T13:04:05;100543.50;;;6.70;82.96
83894;BME280;73920;51.902;6.374;2024-02-26T13:06:32;100522.13;;;6.53;82.91
83894;BME280;73920;51.902;6.374;2024-02-26T13:08:59;100541.47;;;6.56;82.94
83894;BME280;73920;51.902;6.374;2024-02-26T13:11:26;100543.25;;;6.56;83.20
83894;BME280;73920;51.902;6.374;2024-02-26T13:13:52;100553.22;;;6.51;82.95
83894;BME280;73920;51.902;6.374;2024-02-26T13:16:18;100557.81;;;6.47;82.97
83894;BME280;73920;51.902;6.374;2024-02-26T13:18:45;100556.13;;;6.44;83.25
83894;BME280;73920;51.902;6.374;2024-02-26T13:21:13;100561.50;;;6.43;83.44
83894;BME280;73920;51.902;6.374;2024-02-26T13:23:40;100567.75;;;6.42;83.53
83894;BME280;73920;51.902;6.374;2024-02-26T13:26:08;100571.41;;;6.39;83.63
83894;BME280;73920;51.902;6.374;2024-02-26T13:28:35;100572.19;;;6.41;83.82
83894;BME280;73920;51.902;6.374;2024-02-26T13:31:01;100573.09;;;6.40;83.90
83894;BME280;73920;51.902;6.374;2024-02-26T13:33:28;100576.56;;;6.42;83.92
83894;BME280;73920;51.902;6.374;2024-02-26T13:35:56;100580.16;;;6.41;83.82
83894;BME280;73920;51.902;6.374;2024-02-26T13:38:23;100572.31;;;6.38;83.91
83894;BME280;73920;51.902;6.374;2024-02-26T13:40:54;100582.94;;;6.38;83.89
83894;BME280;73920;51.902;6.374;2024-02-26T13:43:21;100573.25;;;6.37;84.05
83894;BME280;73920;51.902;6.374;2024-02-26T13:45:47;100578.63;;;6.36;84.08
83894;BME280;73920;51.902;6.374;2024-02-26T13:48:14;100586.66;;;6.34;84.05
83894;BME280;73920;51.902;6.374;2024-02-26T13:50:43;100590.16;;;6.35;84.37
83894;BME280;73920;51.902;6.374;2024-02-26T13:53:10;100594.69;;;6.33;84.22
83894;BME280;73920;51.902;6.374;2024-02-26T13:55:36;100591.66;;;6.20;84.35
83894;BME280;73920;51.902;6.374;2024-02-26T13:58:03;100625.47;;;6.37;84.34
83894;BME280;73920;51.902;6.374;2024-02-26T14:00:30;100633.37;;;6.38;84.40
83894;BME280;73920;51.902;6.374;2024-02-26T14:02:57;100641.22;;;6.41;84.30
83894;BME280;73920;51.902;6.374;2024-02-26T14:05:23;100606.34;;;6.29;84.17
83894;BME280;73920;51.902;6.374;2024-02-26T14:07:50;100625.12;;;6.46;84.33
83894;BME280;73920;51.902;6.374;2024-02-26T14:10:16;100638.22;;;6.51;84.22
83894;BME280;73920;51.902;6.374;2024-02-26T14:12:42;100631.03;;;6.53;84.11
83894;BME280;73920;51.902;6.374;2024-02-26T14:15:10;100625.84;;;6.50;83.93
83894;BME280;73920;51.902;6.374;2024-02-26T14:17:36;100623.19;;;6.50;84.10
83894;BME280;73920;51.902;6.374;2024-02-26T14:20:03;100631.84;;;6.55;83.98
83894;BME280;73920;51.902;6.374;2024-02-26T14:22:30;100637.91;;;6.58;83.90
83894;BME280;73920;51.902;6.374;2024-02-26T14:24:57;100629.06;;;6.58;83.88
83894;BME280;73920;51.902;6.374;2024-02-26T14:27:23;100632.44;;;6.61;84.04
83894;BME280;73920;51.902;6.374;2024-02-26T14:29:49;100628.78;;;6.64;83.55
83894;BME280;73920;51.902;6.374;2024-02-26T14:32:16;100633.19;;;6.65;83.69
83894;BME280;73920;51.902;6.374;2024-02-26T14:34:42;100643.69;;;6.68;83.80
83894;BME280;73920;51.902;6.374;2024-02-26T14:37:08;100651.66;;;6.68;83.51
83894;BME280;73920;51.902;6.374;2024-02-26T14:39:34;100661.38;;;6.69;83.24
83894;BME280;73920;51.902;6.374;2024-02-26T14:42:01;100659.62;;;6.68;83.19
83894;BME280;73920;51.902;6.374;2024-02-26T14:44:27;100672.78;;;6.71;83.29
83894;BME280;73920;51.902;6.374;2024-02-26T14:46:54;100689.44;;;6.74;83.40
83894;BME280;73920;51.902;6.374;2024-02-26T14:49:20;100698.97;;;6.80;83.56
83894;BME280;73920;51.902;6.374;2024-02-26T14:51:46;100702.28;;;6.85;83.77
83894;BME280;73920;51.902;6.374;2024-02-26T14:54:13;100705.63;;;6.90;83.42
83894;BME280;73920;51.902;6.374;2024-02-26T14:56:40;100699.19;;;6.96;83.49
83894;BME280;73920;51.902;6.374;2024-02-26T14:59:07;100708.63;;;7.03;83.50
83894;BME280;73920;51.902;6.374;2024-02-26T15:01:33;100706.78;;;7.05;83.23
83894;BME280;73920;51.902;6.374;2024-02-26T15:04:00;100703.91;;;7.09;83.24
83894;BME280;73920;51.902;6.374;2024-02-26T15:06:26;100703.66;;;7.15;83.07
83894;BME280;73920;51.902;6.374;2024-02-26T15:08:53;100705.37;;;7.16;82.47
83894;BME280;73920;51.902;6.374;2024-02-26T15:11:19;100712.56;;;7.14;82.15
83894;BME280;73920;51.902;6.374;2024-02-26T15:13:47;100713.44;;;7.15;81.75
83894;BME280;73920;51.902;6.374;2024-02-26T15:16:18;100709.84;;;7.16;82.02
83894;BME280;73920;51.902;6.374;2024-02-26T15:18:45;100708.13;;;7.15;81.88
83894;BME280;73920;51.902;6.374;2024-02-26T15:21:11;100716.97;;;7.15;82.14
83894;BME280;73920;51.902;6.374;2024-02-26T15:23:38;100716.97;;;7.15;81.69
83894;BME280;73920;51.902;6.374;2024-02-26T15:26:04;100717.94;;;7.13;81.48
83894;BME280;73920;51.902;6.374;2024-02-26T15:28:31;100719.94;;;7.08;81.36
83894;BME280;73920;51.902;6.374;2024-02-26T15:30:57;100723.59;;;7.05;80.87
83894;BME280;73920;51.902;6.374;2024-02-26T15:33:24;100728.84;;;7.07;81.31
83894;BME280;73920;51.902;6.374;2024-02-26T15:35:51;100734.25;;;7.05;81.34
83894;BME280;73920;51.902;6.374;2024-02-26T15:38:17;100740.34;;;7.07;81.47
83894;BME280;73920;51.902;6.374;2024-02-26T15:40:43;100750.97;;;7.07;81.55
83894;BME280;73920;51.902;6.374;2024-02-26T15:43:09;100759.63;;;7.12;81.12
83894;BME280;73920;51.902;6.374;2024-02-26T15:45:35;100758.63;;;7.15;81.63
83894;BME280;73920;51.902;6.374;2024-02-26T15:48:02;100746.13;;;7.17;81.36
83894;BME280;73920;51.902;6.374;2024-02-26T15:50:29;100740.91;;;7.15;80.89
83894;BME280;73920;51.902;6.374;2024-02-26T15:52:55;100749.94;;;7.11;80.38
83894;BME280;73920;51.902;6.374;2024-02-26T15:55:21;100737.88;;;7.03;80.93
83894;BME280;73920;51.902;6.374;2024-02-26T15:57:47;100746.91;;;6.99;80.67
83894;BME280;73920;51.902;6.374;2024-02-26T16:00:15;100747.12;;;6.94;81.10
83894;BME280;73920;51.902;6.374;2024-02-26T16:02:41;100764.25;;;6.87;81.32
83894;BME280;73920;51.902;6.374;2024-02-26T16:05:09;100780.19;;;6.87;81.54
83894;BME280;73920;51.902;6.374;2024-02-26T16:07:46;100780.06;;;6.90;81.71
83894;BME280;73920;51.902;6.374;2024-02-26T16:10:21;100772.56;;;6.78;81.66
83894;BME280;73920;51.902;6.374;2024-02-26T16:12:53;100790.56;;;6.93;81.76
83894;BME280;73920;51.902;6.374;2024-02-26T16:15:22;100803.66;;;6.98;81.94
83894;BME280;73920;51.902;6.374;2024-02-26T16:17:54;100806.13;;;7.02;81.82
83894;BME280;73920;51.902;6.374;2024-02-26T16:22:58;100806.03;;;7.05;80.96
83894;BME280;73920;51.902;6.374;2024-02-26T16:25:30;100811.22;;;7.08;80.90
83894;BME280;73920;51.902;6.374;2024-02-26T16:28:02;100818.22;;;7.09;80.68
83894;BME280;73920;51.902;6.374;2024-02-26T16:33:05;100832.59;;;7.05;80.44
83894;BME280;73920;51.902;6.374;2024-02-26T16:35:32;100829.87;;;7.07;80.09
83894;BME280;73920;51.902;6.374;2024-02-26T16:37:58;100840.50;;;7.07;80.11
83894;BME280;73920;51.902;6.374;2024-02-26T16:40:25;100835.12;;;7.08;80.37
83894;BME280;73920;51.902;6.374;2024-02-26T16:42:54;100807.59;;;6.87;80.33
83894;BME280;73920;51.902;6.374;2024-02-26T16:45:20;100806.97;;;6.81;80.02
83894;BME280;73920;51.902;6.374;2024-02-26T16:47:46;100852.12;;;7.04;79.81
83894;BME280;73920;51.902;6.374;2024-02-26T16:50:13;100858.38;;;7.03;80.10
83894;BME280;73920;51.902;6.374;2024-02-26T16:52:39;100864.59;;;7.02;80.05
83894;BME280;73920;51.902;6.374;2024-02-26T16:55:07;100863.84;;;6.99;80.22
83894;BME280;73920;51.902;6.374;2024-02-26T16:57:34;100877.16;;;6.99;80.36
83894;BME280;73920;51.902;6.374;2024-02-26T17:00:01;100880.75;;;6.98;80.19
83894;BME280;73920;51.902;6.374;2024-02-26T17:02:27;100880.81;;;6.96;80.36
83894;BME280;73920;51.902;6.374;2024-02-26T17:04:53;100888.72;;;6.98;80.73
83894;BME280;73920;51.902;6.374;2024-02-26T17:07:19;100893.19;;;6.97;80.68
83894;BME280;73920;51.902;6.374;2024-02-26T17:09:46;100865.69;;;6.75;80.44
83894;BME280;73920;51.902;6.374;2024-02-26T17:12:12;100899.47;;;6.94;80.39
83894;BME280;73920;51.902;6.374;2024-02-26T17:14:38;100912.00;;;6.91;79.94
83894;BME280;73920;51.902;6.374;2024-02-26T17:17:04;100916.56;;;6.87;79.76
83894;BME280;73920;51.902;6.374;2024-02-26T17:19:30;100919.53;;;6.80;79.75
83894;BME280;73920;51.902;6.374;2024-02-26T17:21:57;100925.19;;;6.71;79.97
83894;BME280;73920;51.902;6.374;2024-02-26T17:24:23;100880.47;;;6.35;79.95
83894;BME280;73920;51.902;6.374;2024-02-26T17:26:49;100932.81;;;6.57;80.17
83894;BME280;73920;51.902;6.374;2024-02-26T17:29:16;100861.25;;;6.04;80.44
83894;BME280;73920;51.902;6.374;2024-02-26T17:31:42;100943.94;;;6.43;80.61
83894;BME280;73920;51.902;6.374;2024-02-26T17:34:09;100946.63;;;6.41;80.73
83894;BME280;73920;51.902;6.374;2024-02-26T17:36:36;100959.13;;;6.39;80.78
83894;BME280;73920;51.902;6.374;2024-02-26T17:39:02;100956.66;;;6.33;80.77
83894;BME280;73920;51.902;6.374;2024-02-26T17:41:29;100958.56;;;6.30;80.98
83894;BME280;73920;51.902;6.374;2024-02-26T17:43:55;100961.31;;;6.27;81.14
83894;BME280;73920;51.902;6.374;2024-02-26T17:46:21;100967.62;;;6.24;81.20
83894;BME280;73920;51.902;6.374;2024-02-26T17:48:47;100971.12;;;6.25;81.47
83894;BME280;73920;51.902;6.374;2024-02-26T17:51:14;100968.53;;;6.23;81.61
83894;BME280;73920;51.902;6.374;2024-02-26T17:53:40;100973.84;;;6.23;81.31
83894;BME280;73920;51.902;6.374;2024-02-26T17:56:07;100982.56;;;6.27;81.57
83894;BME280;73920;51.902;6.374;2024-02-26T17:58:34;100983.44;;;6.27;81.56
83894;BME280;73920;51.902;6.374;2024-02-26T18:01:07;100985.97;;;6.30;81.51
83894;BME280;73920;51.902;6.374;2024-02-26T18:03:34;100995.56;;;6.34;81.40
83894;BME280;73920;51.902;6.374;2024-02-26T18:06:01;101001.00;;;6.31;81.21
83894;BME280;73920;51.902;6.374;2024-02-26T18:08:28;101001.91;;;6.30;81.40
83894;BME280;73920;51.902;6.374;2024-02-26T18:10:54;101003.66;;;6.31;81.98
83894;BME280;73920;51.902;6.374;2024-02-26T18:13:20;100970.91;;;6.06;81.96
83894;BME280;73920;51.902;6.374;2024-02-26T18:15:47;101025.62;;;6.36;82.08
83894;BME280;73920;51.902;6.374;2024-02-26T18:18:13;101021.25;;;6.34;81.55
83894;BME280;73920;51.902;6.374;2024-02-26T18:20:39;101029.28;;;6.32;81.59
83894;BME280;73920;51.902;6.374;2024-02-26T18:23:05;101029.69;;;6.20;81.65
83894;BME280;73920;51.902;6.374;2024-02-26T18:25:31;101037.78;;;6.17;81.41
83894;BME280;73920;51.902;6.374;2024-02-26T18:27:59;101044.91;;;6.15;81.54
83894;BME280;73920;51.902;6.374;2024-02-26T18:30:25;101036.25;;;6.10;81.68
83894;BME280;73920;51.902;6.374;2024-02-26T18:32:51;101045.22;;;6.06;82.00
83894;BME280;73920;51.902;6.374;2024-02-26T18:35:18;101044.34;;;6.06;81.89
83894;BME280;73920;51.902;6.374;2024-02-26T18:37:44;101042.56;;;6.06;82.19
83894;BME280;73920;51.902;6.374;2024-02-26T18:40:11;101040.03;;;6.03;81.83
83894;BME280;73920;51.902;6.374;2024-02-26T18:42:37;101046.22;;;6.02;82.14
83894;BME280;73920;51.902;6.374;2024-02-26T18:45:05;101036.09;;;5.87;82.07
83894;BME280;73920;51.902;6.374;2024-02-26T18:47:31;101058.75;;;5.99;81.97
83894;BME280;73920;51.902;6.374;2024-02-26T18:49:57;101062.41;;;5.94;81.84
83894;BME280;73920;51.902;6.374;2024-02-26T18:52:24;101062.53;;;5.90;82.17
83894;BME280;73920;51.902;6.374;2024-02-26T18:54:50;101074.97;;;5.89;82.21
83894;BME280;73920;51.902;6.374;2024-02-26T18:57:16;101071.44;;;5.89;82.35
83894;BME280;73920;51.902;6.374;2024-02-26T18:59:42;101033.34;;;5.62;82.27
83894;BME280;73920;51.902;6.374;2024-02-26T19:02:09;101082.97;;;5.88;82.18
83894;BME280;73920;51.902;6.374;2024-02-26T19:07:12;101086.53;;;5.87;82.17
83894;BME280;73920;51.902;6.374;2024-02-26T19:09:38;101048.38;;;5.62;82.00
83894;BME280;73920;51.902;6.374;2024-02-26T19:12:05;101092.91;;;5.80;82.09
83894;BME280;73920;51.902;6.374;2024-02-26T19:14:32;101100.19;;;5.73;82.35
83894;BME280;73920;51.902;6.374;2024-02-26T19:16:58;101102.88;;;5.72;82.02
83894;BME280;73920;51.902;6.374;2024-02-26T19:19:24;101109.13;;;5.71;82.37
83894;BME280;73920;51.902;6.374;2024-02-26T19:21:50;101110.94;;;5.69;82.41
83894;BME280;73920;51.902;6.374;2024-02-26T19:24:17;101117.19;;;5.68;82.44
83894;BME280;73920;51.902;6.374;2024-02-26T19:26:43;101121.66;;;5.66;82.44
83894;BME280;73920;51.902;6.374;2024-02-26T19:29:09;101125.16;;;5.66;82.62
83894;BME280;73920;51.902;6.374;2024-02-26T19:31:36;101144.63;;;5.67;82.83
83894;BME280;73920;51.902;6.374;2024-02-26T19:34:02;101143.72;;;5.68;82.55